キンシャサ の空港の天気 - METARとTAF

キンシャサ/ヌジリ国際空港 ( FZAA / FIH ) - コンゴ民主共和国 キンシャサ
飛行場実況気象(Metar)
観測時間07/20 13:00 WAT (07/20 12:00 UTC)
風向・風速北西 4m/s
視程4500m
天気現象煙霧
全天の8割程度の雲 雲底高度 490m
気温26℃
湿度65%
気圧1015hPa
METARFZAA 201200Z 32008KT 4500 HZ BKN016 26/19 Q1015 NOSIG
過去の天気等 Google飛行場航空写真 Wunderground天気予報

過去48時間のMETAR

飛行場予報(TAF)
発表時間: 7/20 12:00 WAT (7/20 11:00 UTC)
予報対象時間: 20日13時 WAT ~ 21日19時 WAT
風向・風速西 5m/s
視程6000m
全天の4割程度の雲 雲底高度 610m
20日18時 WAT ~ 20日20時 WAT に徐々に
風向・風速南南西 2m/s
視程4000m
天気現象もや
なし
21日4時 WAT ~ 21日6時 WAT に徐々に
全天の8割程度の雲 雲底高度 430m
21日10時 WAT ~ 21日12時 WAT に徐々に
風向・風速西北西 6m/s
視程6000m
天気現象運行に影響にある天気現象が終了
少しの雲 雲底高度 610m
TAF FZAA 201100Z 2012/2118 28010KT 6000 SCT020
BECMG 2017/2019 21004KT 4000 BR NSC
BECMG 2103/2105 BKN014
BECMG 2109/2111 30012KT 6000 NSW FEW020